Time;durP1;ratioP1;P1;durP2;ratioP2;P2;SDS_P1;SDS_P2;PMS_P1;PMS_P2;Temp;Humidity;BMP_temperature;BMP_pressure;BME280_temperature;BME280_humidity;BME280_pressure;Samples;Min_cycle;Max_cycle;Signal;HPM_P1;HPM_P2
2024/02/29 00:01:50;;;;;;;0.20;0.10;;;;;;;;;;4982842;28;20042;-80
2024/02/29 00:04:16;;;;;;;0.20;0.10;;;;;;;;;;4985516;28;20046;-80
2024/02/29 00:06:42;;;;;;;0.20;0.10;;;;;;;;;;5006458;28;20049;-79
2024/02/29 00:09:08;;;;;;;0.30;0.20;;;;;;;;;;4988274;28;20133;-79
2024/02/29 00:11:34;;;;;;;0.20;0.10;;;;;;;;;;4974002;28;20038;-81
2024/02/29 00:14:00;;;;;;;0.65;0.63;;;;;;;;;;4987066;28;20034;-79
2024/02/29 00:16:26;;;;;;;0.20;0.10;;;;;;;;;;4990249;28;20048;-81
2024/02/29 00:18:52;;;;;;;0.20;0.08;;;;;;;;;;4976487;28;20034;-82
2024/02/29 00:21:18;;;;;;;0.20;0.10;;;;;;;;;;4990740;28;20093;-80
2024/02/29 00:23:44;;;;;;;0.20;0.13;;;;;;;;;;4975133;28;20030;-79
2024/02/29 00:26:14;;;;;;;0.98;0.35;;;;;;;;;;4987649;28;20041;-81
2024/02/29 00:28:40;;;;;;;0.20;0.00;;;;;;;;;;4970464;28;20498;-79
2024/02/29 00:31:06;;;;;;;0.20;0.08;;;;;;;;;;4988956;28;20042;-79
2024/02/29 00:33:32;;;;;;;0.20;0.10;;;;;;;;;;4985324;28;20041;-81
2024/02/29 00:35:58;;;;;;;0.20;0.00;;;;;;;;;;4966463;28;20042;-80
2024/02/29 00:38:25;;;;;;;0.20;0.10;;;;;;;;;;4984535;28;20042;-79
2024/02/29 00:40:51;;;;;;;0.20;0.10;;;;;;;;;;4987541;28;20038;-80
2024/02/29 00:43:17;;;;;;;0.20;0.10;;;;;;;;;;4972259;28;20078;-80
2024/02/29 00:45:43;;;;;;;0.43;0.20;;;;;;;;;;4973969;28;20598;-79
2024/02/29 00:48:10;;;;;;;0.25;0.20;;;;;;;;;;4985233;28;20044;-81
2024/02/29 00:50:36;;;;;;;0.22;0.22;;;;;;;;;;4969502;28;20511;-78
2024/02/29 00:53:02;;;;;;;0.20;0.10;;;;;;;;;;4971930;28;20135;-80
2024/02/29 00:55:28;;;;;;;0.20;0.05;;;;;;;;;;4990211;28;20037;-80
2024/02/29 00:57:54;;;;;;;0.20;0.00;;;;;;;;;;4992780;28;20490;-80
2024/02/29 01:00:21;;;;;;;0.20;0.10;;;;;;;;;;4989918;28;20045;-81
2024/02/29 01:02:47;;;;;;;0.38;0.38;;;;;;;;;;4973160;28;20125;-80
2024/02/29 01:05:14;;;;;;;0.20;0.00;;;;;;;;;;4989195;28;20677;-79
2024/02/29 01:07:41;;;;;;;0.25;0.20;;;;;;;;;;4990002;28;20458;-79
2024/02/29 01:10:16;;;;;;;0.20;0.20;;;;;;;;;;4987897;28;20045;-81
2024/02/29 01:12:42;;;;;;;0.20;0.10;;;;;;;;;;4987666;28;20129;-80
2024/02/29 01:15:14;;;;;;;0.32;0.32;;;;;;;;;;4968735;28;20052;-81
2024/02/29 01:17:41;;;;;;;0.20;0.10;;;;;;;;;;4990002;28;20042;-81
2024/02/29 01:20:08;;;;;;;0.20;0.10;;;;;;;;;;4974343;28;20132;-80
2024/02/29 01:22:35;;;;;;;0.20;0.10;;;;;;;;;;4972221;28;20042;-79
2024/02/29 01:25:01;;;;;;;0.50;0.45;;;;;;;;;;4974447;28;20076;-80
2024/02/29 01:27:27;;;;;;;0.20;0.10;;;;;;;;;;4986306;28;20041;-79
2024/02/29 01:29:53;;;;;;;0.20;0.20;;;;;;;;;;4977054;28;20689;-80
2024/02/29 01:32:19;;;;;;;0.20;0.10;;;;;;;;;;4990721;28;20042;-79
2024/02/29 01:34:46;;;;;;;0.45;0.45;;;;;;;;;;4986600;28;20088;-81
2024/02/29 01:37:12;;;;;;;0.20;0.10;;;;;;;;;;4983990;28;20042;-81
2024/02/29 01:39:38;;;;;;;0.32;0.32;;;;;;;;;;4970927;28;20038;-80
2024/02/29 01:42:04;;;;;;;0.20;0.10;;;;;;;;;;4975036;28;20033;-83
2024/02/29 01:44:30;;;;;;;0.30;0.30;;;;;;;;;;4985122;28;20129;-83
2024/02/29 01:46:57;;;;;;;0.20;0.10;;;;;;;;;;5005759;28;20112;-81
2024/02/29 01:49:23;;;;;;;0.20;0.10;;;;;;;;;;4972731;28;20641;-80
2024/02/29 01:51:50;;;;;;;0.35;0.20;;;;;;;;;;4990832;28;20274;-81
2024/02/29 01:54:16;;;;;;;0.20;0.10;;;;;;;;;;4986669;28;20061;-80
2024/02/29 01:56:42;;;;;;;0.20;0.10;;;;;;;;;;4972469;28;20506;-78
2024/02/29 01:59:08;;;;;;;0.20;0.10;;;;;;;;;;4989083;28;20077;-79
2024/02/29 02:01:35;;;;;;;0.20;0.15;;;;;;;;;;4977641;28;20034;-81
2024/02/29 02:04:01;;;;;;;1.45;1.15;;;;;;;;;;4980397;28;20045;-80
2024/02/29 02:06:27;;;;;;;0.20;0.10;;;;;;;;;;4986067;28;20525;-79
2024/02/29 02:08:53;;;;;;;0.20;0.10;;;;;;;;;;4991671;28;20037;-82
2024/02/29 02:11:19;;;;;;;0.22;0.20;;;;;;;;;;4981003;28;20034;-80
2024/02/29 02:13:46;;;;;;;0.20;0.10;;;;;;;;;;4988604;28;20093;-80
2024/02/29 02:16:12;;;;;;;0.20;0.10;;;;;;;;;;4985439;28;20083;-79
2024/02/29 02:18:38;;;;;;;0.38;0.20;;;;;;;;;;4994880;28;20034;-79
2024/02/29 02:21:04;;;;;;;0.30;0.30;;;;;;;;;;4984873;28;20042;-80
2024/02/29 02:23:31;;;;;;;0.20;0.10;;;;;;;;;;4971340;28;20050;-80
2024/02/29 02:26:00;;;;;;;0.73;0.70;;;;;;;;;;4972133;28;20046;-77
2024/02/29 02:28:27;;;;;;;0.20;0.13;;;;;;;;;;4966755;28;20045;-79
2024/02/29 02:30:53;;;;;;;1.20;0.35;;;;;;;;;;4991944;28;20888;-78
2024/02/29 02:33:20;;;;;;;0.20;0.10;;;;;;;;;;4971672;28;20125;-79
2024/02/29 02:35:46;;;;;;;0.20;0.10;;;;;;;;;;4978409;28;20113;-80
2024/02/29 02:38:12;;;;;;;0.20;0.10;;;;;;;;;;4977461;28;20037;-82
2024/02/29 02:40:38;;;;;;;0.20;0.00;;;;;;;;;;4973143;28;20133;-81
2024/02/29 02:43:04;;;;;;;0.43;0.43;;;;;;;;;;4983573;28;20050;-80
2024/02/29 02:45:30;;;;;;;0.20;0.10;;;;;;;;;;4982287;28;20057;-78
2024/02/29 02:47:56;;;;;;;0.20;0.10;;;;;;;;;;4971326;28;20069;-82
2024/02/29 02:50:23;;;;;;;0.20;0.10;;;;;;;;;;4969571;28;20042;-80
2024/02/29 02:52:49;;;;;;;0.75;0.50;;;;;;;;;;4967651;28;20460;-82
2024/02/29 02:55:15;;;;;;;0.20;0.10;;;;;;;;;;4987727;28;20042;-79
2024/02/29 02:57:41;;;;;;;0.20;0.15;;;;;;;;;;4983487;28;20045;-85
2024/02/29 03:00:10;;;;;;;0.20;0.00;;;;;;;;;;4989258;28;20138;-80
2024/02/29 03:02:37;;;;;;;0.20;0.10;;;;;;;;;;4971571;28;20038;-81
2024/02/29 03:05:04;;;;;;;0.20;0.00;;;;;;;;;;4985452;28;20056;-82
2024/02/29 03:07:31;;;;;;;0.45;0.45;;;;;;;;;;4975117;28;20528;-79
2024/02/29 03:09:57;;;;;;;0.20;0.10;;;;;;;;;;4989550;28;20042;-81
2024/02/29 03:12:23;;;;;;;0.20;0.10;;;;;;;;;;4984059;28;20601;-77
2024/02/29 03:14:49;;;;;;;0.20;0.10;;;;;;;;;;4967513;28;20451;-79
2024/02/29 03:17:15;;;;;;;0.20;0.00;;;;;;;;;;4966531;28;20038;-79
2024/02/29 03:19:42;;;;;;;0.20;0.10;;;;;;;;;;4987641;28;20125;-83
2024/02/29 03:22:08;;;;;;;0.20;0.10;;;;;;;;;;4987132;28;20037;-80
2024/02/29 03:24:39;;;;;;;0.20;0.10;;;;;;;;;;4987151;28;20046;-80
2024/02/29 03:27:05;;;;;;;0.20;0.10;;;;;;;;;;4967869;28;20050;-81
2024/02/29 03:29:32;;;;;;;0.20;0.10;;;;;;;;;;4985848;28;20060;-81
2024/02/29 03:31:58;;;;;;;0.40;0.40;;;;;;;;;;4988576;28;20053;-82
2024/02/29 03:34:23;;;;;;;0.20;0.08;;;;;;;;;;4963779;28;20033;-80
2024/02/29 03:36:50;;;;;;;0.20;0.00;;;;;;;;;;5023144;23;20068;-80
2024/02/29 03:39:15;;;;;;;0.73;0.55;;;;;;;;;;4997699;28;20050;-83
2024/02/29 03:41:41;;;;;;;0.20;0.10;;;;;;;;;;4998106;28;20045;-82
2024/02/29 03:44:07;;;;;;;0.20;0.08;;;;;;;;;;5000994;28;20474;-83
2024/02/29 03:46:34;;;;;;;0.20;0.10;;;;;;;;;;4998636;28;20598;-80
2024/02/29 03:49:00;;;;;;;0.20;0.10;;;;;;;;;;5002184;28;20037;-83
2024/02/29 03:51:26;;;;;;;0.20;0.10;;;;;;;;;;5012776;28;20044;-86
2024/02/29 03:53:52;;;;;;;2.70;0.65;;;;;;;;;;5011779;28;20033;-83
2024/02/29 03:56:18;;;;;;;6.28;0.70;;;;;;;;;;5014474;28;20091;-81
2024/02/29 03:58:44;;;;;;;0.20;0.10;;;;;;;;;;5001248;28;20029;-79
2024/02/29 04:01:10;;;;;;;0.20;0.10;;;;;;;;;;5016989;28;20140;-84
2024/02/29 04:03:40;;;;;;;0.20;0.20;;;;;;;;;;5015585;28;20042;-82
2024/02/29 04:06:06;;;;;;;0.20;0.10;;;;;;;;;;5013848;28;20080;-82
2024/02/29 04:08:33;;;;;;;0.20;0.10;;;;;;;;;;5011471;28;20045;-81
2024/02/29 04:10:59;;;;;;;0.20;0.10;;;;;;;;;;5034295;28;20172;-80
2024/02/29 04:13:25;;;;;;;0.20;0.10;;;;;;;;;;5013143;28;20048;-81
2024/02/29 04:15:51;;;;;;;0.20;0.10;;;;;;;;;;5034095;28;20056;-80
2024/02/29 04:18:17;;;;;;;0.20;0.20;;;;;;;;;;5015380;28;20123;-82
2024/02/29 04:20:46;;;;;;;0.30;0.28;;;;;;;;;;5016498;28;20065;-81
2024/02/29 04:23:14;;;;;;;0.20;0.10;;;;;;;;;;5001526;28;20445;-82
2024/02/29 04:25:40;;;;;;;0.30;0.20;;;;;;;;;;5007937;28;21379;-83
2024/02/29 04:28:06;;;;;;;0.20;0.10;;;;;;;;;;5013621;28;20053;-82
2024/02/29 04:30:32;;;;;;;0.20;0.10;;;;;;;;;;5014986;28;20076;-82
2024/02/29 04:33:00;;;;;;;0.20;0.00;;;;;;;;;;5018576;28;20097;-82
2024/02/29 04:35:26;;;;;;;0.20;0.00;;;;;;;;;;5019901;28;20136;-82
2024/02/29 04:37:52;;;;;;;0.25;0.15;;;;;;;;;;4994073;28;20034;-81
2024/02/29 04:40:18;;;;;;;0.20;0.20;;;;;;;;;;5011969;28;20041;-82
2024/02/29 04:42:44;;;;;;;0.20;0.08;;;;;;;;;;4999410;28;20041;-82
2024/02/29 04:45:10;;;;;;;0.20;0.10;;;;;;;;;;4995721;28;20061;-79
2024/02/29 04:47:37;;;;;;;0.30;0.30;;;;;;;;;;4996271;28;20049;-83
2024/02/29 04:50:05;;;;;;;2.08;0.77;;;;;;;;;;5016229;28;20104;-84
2024/02/29 04:52:31;;;;;;;1.08;1.05;;;;;;;;;;4990611;28;20044;-84
2024/02/29 04:54:58;;;;;;;0.20;0.10;;;;;;;;;;4994374;28;20084;-83
2024/02/29 04:57:23;;;;;;;0.22;0.22;;;;;;;;;;4997198;28;20100;-81
2024/02/29 04:59:49;;;;;;;0.20;0.10;;;;;;;;;;5013514;28;20093;-82
2024/02/29 05:02:16;;;;;;;0.20;0.03;;;;;;;;;;4983757;28;20053;-82
2024/02/29 05:04:42;;;;;;;0.20;0.10;;;;;;;;;;5019679;28;20052;-81
2024/02/29 05:07:08;;;;;;;0.20;0.10;;;;;;;;;;4985849;28;20052;-80
2024/02/29 05:09:34;;;;;;;0.20;0.13;;;;;;;;;;4996550;28;20038;-81
2024/02/29 05:12:00;;;;;;;0.20;0.10;;;;;;;;;;4994693;28;20663;-83
2024/02/29 05:14:26;;;;;;;0.20;0.10;;;;;;;;;;4995309;28;20042;-82
2024/02/29 05:16:54;;;;;;;0.20;0.00;;;;;;;;;;4991458;28;20403;-81
2024/02/29 05:19:20;;;;;;;0.20;0.10;;;;;;;;;;4993179;28;20406;-81
2024/02/29 05:21:46;;;;;;;0.20;0.00;;;;;;;;;;5008955;28;20048;-80
2024/02/29 05:24:12;;;;;;;0.20;0.10;;;;;;;;;;4988273;28;20034;-81
2024/02/29 05:26:39;;;;;;;1.35;0.95;;;;;;;;;;4996435;28;20521;-85
2024/02/29 05:29:06;;;;;;;0.28;0.20;;;;;;;;;;4998158;28;20182;-81
2024/02/29 05:31:32;;;;;;;0.20;0.03;;;;;;;;;;4992953;28;20042;-83
2024/02/29 05:33:58;;;;;;;0.20;0.10;;;;;;;;;;4987204;28;20069;-80
2024/02/29 05:36:24;;;;;;;0.20;0.10;;;;;;;;;;5020807;28;20100;-83
2024/02/29 05:38:50;;;;;;;0.20;0.10;;;;;;;;;;4992924;28;20073;-81
2024/02/29 05:41:17;;;;;;;0.20;0.10;;;;;;;;;;5006398;28;20034;-81
2024/02/29 05:43:44;;;;;;;0.20;0.00;;;;;;;;;;5010020;28;20045;-80
2024/02/29 05:46:10;;;;;;;0.20;0.10;;;;;;;;;;5005758;28;20033;-80
2024/02/29 05:48:37;;;;;;;0.20;0.10;;;;;;;;;;5005590;28;20049;-81
2024/02/29 05:51:04;;;;;;;0.20;0.10;;;;;;;;;;5003277;28;20049;-81
2024/02/29 05:53:30;;;;;;;0.20;0.10;;;;;;;;;;5013057;28;20046;-83
2024/02/29 05:55:58;;;;;;;0.20;0.10;;;;;;;;;;4993886;28;20613;-81
2024/02/29 05:58:30;;;;;;;0.20;0.10;;;;;;;;;;5008510;28;20050;-81
2024/02/29 06:00:56;;;;;;;0.20;0.10;;;;;;;;;;5005682;28;20034;-85
2024/02/29 06:03:22;;;;;;;0.20;0.10;;;;;;;;;;5009778;28;20040;-81
2024/02/29 06:05:48;;;;;;;0.20;0.17;;;;;;;;;;5013894;28;20117;-81
2024/02/29 06:08:14;;;;;;;0.25;0.15;;;;;;;;;;5005258;28;20042;-82
2024/02/29 06:10:41;;;;;;;0.20;0.10;;;;;;;;;;5024789;28;20034;-81
2024/02/29 06:13:07;;;;;;;0.20;0.10;;;;;;;;;;5023659;28;20048;-81
2024/02/29 06:15:33;;;;;;;0.20;0.10;;;;;;;;;;5025834;28;20050;-83
2024/02/29 06:17:59;;;;;;;0.40;0.40;;;;;;;;;;5008155;28;20045;-85
2024/02/29 06:20:25;;;;;;;0.20;0.10;;;;;;;;;;5017033;28;20039;-81
2024/02/29 06:22:51;;;;;;;0.20;0.10;;;;;;;;;;5021342;28;20072;-83
2024/02/29 06:25:18;;;;;;;0.20;0.05;;;;;;;;;;5023249;28;20087;-80
2024/02/29 06:27:44;;;;;;;0.22;0.22;;;;;;;;;;5013749;28;20063;-83
2024/02/29 06:30:10;;;;;;;0.20;0.10;;;;;;;;;;5013606;28;20037;-83
2024/02/29 06:32:36;;;;;;;0.50;0.38;;;;;;;;;;5000221;28;20046;-80
2024/02/29 06:35:03;;;;;;;0.25;0.25;;;;;;;;;;5008419;28;20038;-81
2024/02/29 06:37:29;;;;;;;0.20;0.10;;;;;;;;;;5025567;28;20037;-83
2024/02/29 06:39:58;;;;;;;0.20;0.10;;;;;;;;;;5010267;28;20033;-80
2024/02/29 06:42:24;;;;;;;0.20;0.10;;;;;;;;;;5029609;28;20045;-80
2024/02/29 06:44:51;;;;;;;0.20;0.10;;;;;;;;;;4999983;28;20453;-82
2024/02/29 06:47:17;;;;;;;0.20;0.10;;;;;;;;;;4998441;28;20048;-80
2024/02/29 06:49:43;;;;;;;0.20;0.10;;;;;;;;;;5000816;28;20112;-81
2024/02/29 06:52:09;;;;;;;0.20;0.10;;;;;;;;;;5031038;28;20274;-81
2024/02/29 06:54:36;;;;;;;0.20;0.00;;;;;;;;;;5035746;28;20037;-81
2024/02/29 06:57:02;;;;;;;0.20;0.10;;;;;;;;;;5029317;28;20033;-81
2024/02/29 06:59:31;;;;;;;0.20;0.10;;;;;;;;;;5014645;28;20033;-82
2024/02/29 07:01:59;;;;;;;0.20;0.10;;;;;;;;;;5008966;28;20037;-80
2024/02/29 07:04:25;;;;;;;0.20;0.10;;;;;;;;;;5012961;28;20045;-81
2024/02/29 07:06:50;;;;;;;0.20;0.00;;;;;;;;;;5029198;28;20334;-80
2024/02/29 07:09:16;;;;;;;0.20;0.20;;;;;;;;;;5005341;28;20077;-81
2024/02/29 07:11:42;;;;;;;0.20;0.10;;;;;;;;;;5027062;28;20040;-81
2024/02/29 07:14:09;;;;;;;0.20;0.10;;;;;;;;;;5003165;28;20045;-81
2024/02/29 07:16:35;;;;;;;0.73;0.70;;;;;;;;;;5016915;28;20051;-80
2024/02/29 07:19:01;;;;;;;0.20;0.10;;;;;;;;;;5011232;28;20041;-82
2024/02/29 07:21:27;;;;;;;0.20;0.13;;;;;;;;;;5021350;28;21017;-82
2024/02/29 07:23:54;;;;;;;0.20;0.10;;;;;;;;;;5013203;28;20041;-82
2024/02/29 07:26:20;;;;;;;0.20;0.10;;;;;;;;;;5031407;28;20041;-80
2024/02/29 07:28:46;;;;;;;0.20;0.10;;;;;;;;;;5029138;28;20039;-83
2024/02/29 07:31:15;;;;;;;0.20;0.10;;;;;;;;;;5007465;28;20041;-82
2024/02/29 07:33:41;;;;;;;0.20;0.20;;;;;;;;;;5029090;28;20064;-83
2024/02/29 07:36:07;;;;;;;0.20;0.10;;;;;;;;;;5004136;28;20033;-84
2024/02/29 07:38:33;;;;;;;0.20;0.10;;;;;;;;;;4997383;28;20037;-82
2024/02/29 07:40:59;;;;;;;0.20;0.10;;;;;;;;;;5025015;28;20061;-81
2024/02/29 07:43:25;;;;;;;0.25;0.20;;;;;;;;;;5027856;28;20042;-80
2024/02/29 07:45:51;;;;;;;0.20;0.10;;;;;;;;;;5020804;28;20045;-81
2024/02/29 07:48:17;;;;;;;0.20;0.00;;;;;;;;;;5011873;28;20068;-82
2024/02/29 07:50:43;;;;;;;0.20;0.10;;;;;;;;;;5012169;28;20041;-82
2024/02/29 07:53:09;;;;;;;0.20;0.10;;;;;;;;;;5022060;28;20041;-82
2024/02/29 07:55:36;;;;;;;0.20;0.05;;;;;;;;;;5011094;28;20057;-80
2024/02/29 07:58:03;;;;;;;0.82;0.52;;;;;;;;;;5030063;28;20046;-81
2024/02/29 08:00:29;;;;;;;0.20;0.00;;;;;;;;;;4993571;28;20045;-79
2024/02/29 08:02:55;;;;;;;0.20;0.10;;;;;;;;;;4995021;28;20045;-81
2024/02/29 08:05:22;;;;;;;0.20;0.00;;;;;;;;;;5007980;28;20045;-81
2024/02/29 08:07:48;;;;;;;0.20;0.10;;;;;;;;;;4998440;28;20060;-82
2024/02/29 08:10:15;;;;;;;0.20;0.00;;;;;;;;;;5012390;28;20064;-83
2024/02/29 08:12:42;;;;;;;0.20;0.10;;;;;;;;;;5026673;28;20041;-82
2024/02/29 08:15:09;;;;;;;1.25;0.22;;;;;;;;;;5028078;28;20387;-80
2024/02/29 08:17:35;;;;;;;0.20;0.10;;;;;;;;;;5013864;28;20037;-83
2024/02/29 08:20:01;;;;;;;0.20;0.10;;;;;;;;;;5024830;28;20067;-81
2024/02/29 08:22:27;;;;;;;0.20;0.10;;;;;;;;;;5025474;28;20049;-80
2024/02/29 08:24:53;;;;;;;0.20;0.10;;;;;;;;;;5026243;28;20101;-82
2024/02/29 08:27:19;;;;;;;0.20;0.00;;;;;;;;;;5031047;28;20060;-83
2024/02/29 08:29:45;;;;;;;0.20;0.10;;;;;;;;;;5019942;28;20045;-81
2024/02/29 08:32:13;;;;;;;0.20;0.10;;;;;;;;;;5027606;28;20621;-80
2024/02/29 08:34:39;;;;;;;0.20;0.10;;;;;;;;;;5028289;28;20303;-81
2024/02/29 08:37:05;;;;;;;0.20;0.10;;;;;;;;;;5007252;28;20620;-82
2024/02/29 08:39:33;;;;;;;0.20;0.00;;;;;;;;;;5001300;28;20038;-81
2024/02/29 08:41:59;;;;;;;0.20;0.10;;;;;;;;;;5031431;28;20041;-80
2024/02/29 08:44:25;;;;;;;0.20;0.08;;;;;;;;;;5011783;28;20052;-82
2024/02/29 08:46:53;;;;;;;0.20;0.10;;;;;;;;;;5017796;28;20820;-82
2024/02/29 08:49:19;;;;;;;0.55;0.50;;;;;;;;;;5035323;28;20041;-81
2024/02/29 08:51:45;;;;;;;0.20;0.10;;;;;;;;;;5000360;28;20104;-85
2024/02/29 08:54:11;;;;;;;0.20;0.10;;;;;;;;;;5030682;28;20040;-81
2024/02/29 08:56:37;;;;;;;0.20;0.08;;;;;;;;;;5031560;28;20370;-80
2024/02/29 08:59:03;;;;;;;0.20;0.10;;;;;;;;;;5000540;28;20131;-79
2024/02/29 09:01:29;;;;;;;0.20;0.10;;;;;;;;;;5016212;28;20057;-82
2024/02/29 09:03:55;;;;;;;0.20;0.10;;;;;;;;;;5015273;28;20057;-82
2024/02/29 09:06:21;;;;;;;0.20;0.00;;;;;;;;;;5031588;28;20300;-81
2024/02/29 09:08:48;;;;;;;0.20;0.00;;;;;;;;;;5014881;28;20037;-82
2024/02/29 09:11:14;;;;;;;0.20;0.00;;;;;;;;;;5031995;28;20046;-81
2024/02/29 09:13:40;;;;;;;0.20;0.00;;;;;;;;;;5024395;28;20129;-80
2024/02/29 09:16:07;;;;;;;0.20;0.10;;;;;;;;;;5037026;28;20033;-79
2024/02/29 09:18:34;;;;;;;0.20;0.10;;;;;;;;;;5035150;28;20065;-82
2024/02/29 09:21:00;;;;;;;0.20;0.10;;;;;;;;;;5014267;28;20144;-82
2024/02/29 09:23:26;;;;;;;0.20;0.10;;;;;;;;;;5034507;28;20533;-80
2024/02/29 09:25:52;;;;;;;0.20;0.10;;;;;;;;;;5019762;28;20068;-83
2024/02/29 09:28:18;;;;;;;0.20;0.10;;;;;;;;;;5009910;28;20979;-85
2024/02/29 09:30:44;;;;;;;0.20;0.10;;;;;;;;;;5013973;28;20254;-81
2024/02/29 09:33:10;;;;;;;0.20;0.00;;;;;;;;;;5017304;28;20042;-83
2024/02/29 09:35:36;;;;;;;0.20;0.00;;;;;;;;;;5026344;23;20092;-80
2024/02/29 09:38:02;;;;;;;0.57;0.20;;;;;;;;;;4987467;28;20330;-80
2024/02/29 09:40:28;;;;;;;0.20;0.10;;;;;;;;;;4974234;28;20038;-77
2024/02/29 09:42:55;;;;;;;0.20;0.10;;;;;;;;;;4988754;28;20046;-80
2024/02/29 09:45:23;;;;;;;0.65;0.28;;;;;;;;;;4989555;28;20609;-80
2024/02/29 09:47:50;;;;;;;0.45;0.43;;;;;;;;;;4993177;28;20054;-83
2024/02/29 09:50:16;;;;;;;0.20;0.10;;;;;;;;;;4994684;28;20049;-80
2024/02/29 09:52:43;;;;;;;0.20;0.10;;;;;;;;;;4994942;28;20502;-79
2024/02/29 09:55:17;;;;;;;0.20;0.10;;;;;;;;;;4962962;28;20048;-79
2024/02/29 09:57:44;;;;;;;0.20;0.10;;;;;;;;;;4990887;28;20262;-82
2024/02/29 10:00:10;;;;;;;0.40;0.25;;;;;;;;;;4988105;28;20044;-78
2024/02/29 10:02:38;;;;;;;0.65;0.50;;;;;;;;;;4972079;28;20112;-79
2024/02/29 10:05:05;;;;;;;0.20;0.10;;;;;;;;;;4989707;28;20057;-80
2024/02/29 10:07:31;;;;;;;0.20;0.10;;;;;;;;;;4981899;28;20042;-81
2024/02/29 10:09:58;;;;;;;0.20;0.10;;;;;;;;;;4986227;28;20069;-82
2024/02/29 10:12:24;;;;;;;0.20;0.10;;;;;;;;;;4966771;28;20554;-79
2024/02/29 10:14:57;;;;;;;0.20;0.00;;;;;;;;;;4987280;28;20046;-79
2024/02/29 10:17:24;;;;;;;0.20;0.10;;;;;;;;;;4969330;28;20390;-78
2024/02/29 10:19:54;;;;;;;0.35;0.35;;;;;;;;;;4978646;28;20629;-82
2024/02/29 10:22:21;;;;;;;0.40;0.25;;;;;;;;;;4968792;28;20054;-81
2024/02/29 10:24:54;;;;;;;0.20;0.10;;;;;;;;;;4983799;28;20129;-78
2024/02/29 10:27:22;;;;;;;0.20;0.13;;;;;;;;;;4966304;28;20045;-82
2024/02/29 10:29:51;;;;;;;0.20;0.10;;;;;;;;;;4967475;28;20084;-79
2024/02/29 10:32:17;;;;;;;0.20;0.10;;;;;;;;;;4988461;28;20082;-81
2024/02/29 10:34:43;;;;;;;0.20;0.10;;;;;;;;;;4991579;28;20441;-81
2024/02/29 10:37:09;;;;;;;0.20;0.10;;;;;;;;;;4968032;28;20054;-78
2024/02/29 10:39:38;;;;;;;0.20;0.00;;;;;;;;;;4967958;28;20054;-82
2024/02/29 10:42:05;;;;;;;0.20;0.10;;;;;;;;;;4989423;28;20471;-78
2024/02/29 10:44:31;;;;;;;0.20;0.10;;;;;;;;;;4989297;28;20383;-78
2024/02/29 10:47:02;;;;;;;0.20;0.10;;;;;;;;;;4989317;28;20045;-79
2024/02/29 10:49:33;;;;;;;0.20;0.10;;;;;;;;;;4990544;28;20045;-80
2024/02/29 10:52:07;;;;;;;0.20;0.03;;;;;;;;;;4987638;28;20469;-79
2024/02/29 10:54:33;;;;;;;0.20;0.15;;;;;;;;;;4984565;28;20076;-78
2024/02/29 10:56:59;;;;;;;0.20;0.10;;;;;;;;;;4985891;28;20442;-78
2024/02/29 10:59:25;;;;;;;0.20;0.05;;;;;;;;;;4965651;28;20116;-75
2024/02/29 11:01:57;;;;;;;0.20;0.15;;;;;;;;;;4982290;28;20092;-78
2024/02/29 11:04:23;;;;;;;0.20;0.10;;;;;;;;;;4984476;28;20153;-77
2024/02/29 11:06:49;;;;;;;0.20;0.10;;;;;;;;;;4989636;28;20136;-82
2024/02/29 11:09:16;;;;;;;0.20;0.10;;;;;;;;;;4986256;28;20034;-79
2024/02/29 11:11:48;;;;;;;0.20;0.10;;;;;;;;;;4987648;28;20062;-77
2024/02/29 11:14:17;;;;;;;0.20;0.10;;;;;;;;;;4983816;28;20042;-78
2024/02/29 11:16:45;;;;;;;0.20;0.10;;;;;;;;;;4989859;28;20142;-78
2024/02/29 11:19:15;;;;;;;0.20;0.20;;;;;;;;;;4986048;28;20466;-80
2024/02/29 11:21:41;;;;;;;0.25;0.25;;;;;;;;;;4963078;28;20382;-81
2024/02/29 11:24:08;;;;;;;0.20;0.03;;;;;;;;;;4985576;28;20041;-76
2024/02/29 11:26:35;;;;;;;0.47;0.47;;;;;;;;;;4985332;28;20045;-78
2024/02/29 11:29:18;;;;;;;0.20;0.00;;;;;;;;;;4990857;28;20104;-79
2024/02/29 11:31:46;;;;;;;0.20;0.00;;;;;;;;;;4981444;28;20121;-77
2024/02/29 11:34:12;;;;;;;0.20;0.00;;;;;;;;;;4993068;28;20041;-79
2024/02/29 11:36:38;;;;;;;0.20;0.10;;;;;;;;;;4989680;28;20453;-79
2024/02/29 11:39:10;;;;;;;0.20;0.15;;;;;;;;;;4986698;28;20053;-79
2024/02/29 11:41:37;;;;;;;0.28;0.13;;;;;;;;;;4986264;28;20042;-78
2024/02/29 11:44:03;;;;;;;0.20;0.10;;;;;;;;;;4994509;28;20118;-81
2024/02/29 11:46:29;;;;;;;0.20;0.10;;;;;;;;;;4994821;28;20053;-80
2024/02/29 11:48:56;;;;;;;0.20;0.10;;;;;;;;;;4992518;28;20038;-81
2024/02/29 11:51:23;;;;;;;3.63;0.93;;;;;;;;;;4992020;28;20046;-80
2024/02/29 11:53:49;;;;;;;0.20;0.10;;;;;;;;;;4986714;28;20045;-80
2024/02/29 11:56:15;;;;;;;0.20;0.10;;;;;;;;;;5004003;28;20093;-80
2024/02/29 11:58:42;;;;;;;0.38;0.28;;;;;;;;;;5003060;28;20507;-80
2024/02/29 12:01:11;;;;;;;0.20;0.10;;;;;;;;;;4973921;28;20278;-81
2024/02/29 12:03:37;;;;;;;0.20;0.03;;;;;;;;;;4992672;28;20046;-79
2024/02/29 12:06:03;;;;;;;0.20;0.17;;;;;;;;;;4988083;28;20057;-77
2024/02/29 12:08:30;;;;;;;0.20;0.10;;;;;;;;;;4970454;28;20049;-80
2024/02/29 12:11:00;;;;;;;0.20;0.10;;;;;;;;;;4993921;28;20042;-84
2024/02/29 12:13:26;;;;;;;0.20;0.10;;;;;;;;;;4987571;28;20056;-79
2024/02/29 12:15:53;;;;;;;0.22;0.13;;;;;;;;;;4989354;28;20106;-80
2024/02/29 12:18:19;;;;;;;0.20;0.10;;;;;;;;;;5000877;28;20045;-77
2024/02/29 12:20:46;;;;;;;0.20;0.10;;;;;;;;;;4996722;28;20045;-79
2024/02/29 12:23:16;;;;;;;0.20;0.10;;;;;;;;;;5006221;28;20453;-79
2024/02/29 12:25:42;;;;;;;1.08;0.43;;;;;;;;;;5005090;28;20041;-81
2024/02/29 12:28:09;;;;;;;0.20;0.10;;;;;;;;;;4971278;28;20048;-79
2024/02/29 12:30:35;;;;;;;0.20;0.10;;;;;;;;;;5004310;28;20084;-83
2024/02/29 12:33:02;;;;;;;0.20;0.10;;;;;;;;;;4972865;28;20160;-80
2024/02/29 12:35:31;;;;;;;0.20;0.10;;;;;;;;;;4991620;28;20044;-79
2024/02/29 12:37:57;;;;;;;0.20;0.10;;;;;;;;;;4968611;28;20125;-80
2024/02/29 12:40:25;;;;;;;0.20;0.00;;;;;;;;;;4988279;28;20096;-80
2024/02/29 12:42:51;;;;;;;0.20;0.10;;;;;;;;;;4990402;28;20064;-81
2024/02/29 12:45:17;;;;;;;0.20;0.03;;;;;;;;;;5003595;28;20046;-81
2024/02/29 12:47:43;;;;;;;0.20;0.10;;;;;;;;;;4986351;28;20049;-77
2024/02/29 12:50:09;;;;;;;0.20;0.10;;;;;;;;;;4986847;28;20080;-79
2024/02/29 12:52:36;;;;;;;0.20;0.00;;;;;;;;;;4992841;28;20494;-82
2024/02/29 12:55:02;;;;;;;0.20;0.10;;;;;;;;;;4974180;28;20034;-81
2024/02/29 12:57:28;;;;;;;0.20;0.10;;;;;;;;;;5003989;28;20466;-79
2024/02/29 12:59:55;;;;;;;0.20;0.10;;;;;;;;;;4975094;28;20049;-78
2024/02/29 13:02:21;;;;;;;0.20;0.10;;;;;;;;;;5004774;28;20145;-80
2024/02/29 13:04:47;;;;;;;0.20;0.00;;;;;;;;;;4996891;28;20048;-80
2024/02/29 13:07:13;;;;;;;0.30;0.30;;;;;;;;;;4994214;28;20042;-80
2024/02/29 13:09:39;;;;;;;0.20;0.10;;;;;;;;;;5007071;28;20064;-79
2024/02/29 13:12:05;;;;;;;0.20;0.10;;;;;;;;;;4990594;28;20042;-80
2024/02/29 13:14:31;;;;;;;0.20;0.10;;;;;;;;;;5004242;28;20038;-79
2024/02/29 13:16:57;;;;;;;0.22;0.15;;;;;;;;;;4991906;28;20157;-82
2024/02/29 13:19:23;;;;;;;0.20;0.10;;;;;;;;;;4989054;28;20075;-79
2024/02/29 13:21:49;;;;;;;0.20;0.10;;;;;;;;;;4984378;28;20237;-79
2024/02/29 13:24:15;;;;;;;0.22;0.13;;;;;;;;;;4990215;28;20041;-81
2024/02/29 13:26:42;;;;;;;0.20;0.10;;;;;;;;;;5006563;28;20060;-80
2024/02/29 13:29:07;;;;;;;0.20;0.10;;;;;;;;;;4992888;28;20041;-81
2024/02/29 13:31:34;;;;;;;0.20;0.10;;;;;;;;;;4973059;28;20071;-80
2024/02/29 13:34:00;;;;;;;0.20;0.10;;;;;;;;;;4994225;28;20041;-79
2024/02/29 13:36:26;;;;;;;0.20;0.10;;;;;;;;;;4978765;28;20509;-79
2024/02/29 13:38:52;;;;;;;0.20;0.00;;;;;;;;;;4987949;28;20046;-79
2024/02/29 13:41:18;;;;;;;0.20;0.10;;;;;;;;;;4969762;28;20049;-79
2024/02/29 13:43:44;;;;;;;0.20;0.10;;;;;;;;;;4970205;28;20418;-78
2024/02/29 13:46:12;;;;;;;0.20;0.10;;;;;;;;;;4995054;28;20040;-79
2024/02/29 13:48:40;;;;;;;0.20;0.00;;;;;;;;;;4987899;28;20080;-78
2024/02/29 13:51:06;;;;;;;0.30;0.20;;;;;;;;;;4991388;28;20038;-83
2024/02/29 13:53:32;;;;;;;0.25;0.15;;;;;;;;;;4982798;28;20148;-79
2024/02/29 13:55:58;;;;;;;0.20;0.10;;;;;;;;;;4994405;28;20079;-79
2024/02/29 13:58:24;;;;;;;0.28;0.15;;;;;;;;;;4979096;28;20050;-80
2024/02/29 14:00:51;;;;;;;0.20;0.20;;;;;;;;;;4981250;28;20051;-83
2024/02/29 14:03:17;;;;;;;0.20;0.00;;;;;;;;;;4985122;28;20046;-83
2024/02/29 14:05:43;;;;;;;0.20;0.10;;;;;;;;;;4972677;28;20049;-80
2024/02/29 14:08:09;;;;;;;0.20;0.20;;;;;;;;;;4986629;28;20045;-81
2024/02/29 14:10:35;;;;;;;0.20;0.10;;;;;;;;;;4986696;28;20418;-79
2024/02/29 14:13:01;;;;;;;0.20;0.05;;;;;;;;;;4989522;28;20042;-79
2024/02/29 14:15:27;;;;;;;0.20;0.10;;;;;;;;;;4989462;28;20041;-81
2024/02/29 14:17:53;;;;;;;0.20;0.10;;;;;;;;;;4986733;28;20050;-79
2024/02/29 14:20:19;;;;;;;0.20;0.10;;;;;;;;;;4992450;28;20038;-79
2024/02/29 14:22:46;;;;;;;0.20;0.10;;;;;;;;;;5006225;28;20091;-82
2024/02/29 14:25:12;;;;;;;0.20;0.00;;;;;;;;;;4993396;28;20049;-80
2024/02/29 14:27:38;;;;;;;0.35;0.30;;;;;;;;;;4993277;28;20104;-81
2024/02/29 14:30:08;;;;;;;0.20;0.10;;;;;;;;;;4998096;28;20627;-83
2024/02/29 14:32:35;;;;;;;0.63;0.35;;;;;;;;;;4991534;28;20075;-82
2024/02/29 14:35:04;;;;;;;0.20;0.10;;;;;;;;;;4987479;28;20042;-83
2024/02/29 14:37:30;;;;;;;0.20;0.10;;;;;;;;;;4966922;28;20346;-81
2024/02/29 14:39:56;;;;;;;0.20;0.10;;;;;;;;;;4967842;28;20050;-83